sensor_id;sensor_type;location;lat;lon;timestamp;P1;durP1;ratioP1;P2;durP2;ratioP2
36653;SDS011;22650;49.350;20.898;2023-03-14T00:01:09;6.78;;;4.05;;
36653;SDS011;22650;49.350;20.898;2023-03-14T00:03:45;9.95;;;3.95;;
36653;SDS011;22650;49.350;20.898;2023-03-14T00:06:18;6.25;;;3.17;;
36653;SDS011;22650;49.350;20.898;2023-03-14T00:08:52;7.93;;;4.20;;
36653;SDS011;22650;49.350;20.898;2023-03-14T00:11:26;7.72;;;4.07;;
36653;SDS011;22650;49.350;20.898;2023-03-14T00:13:59;7.20;;;3.60;;
36653;SDS011;22650;49.350;20.898;2023-03-14T00:16:35;7.15;;;3.60;;
36653;SDS011;22650;49.350;20.898;2023-03-14T00:19:09;8.20;;;4.18;;
36653;SDS011;22650;49.350;20.898;2023-03-14T00:21:42;7.72;;;3.65;;
36653;SDS011;22650;49.350;20.898;2023-03-14T00:24:16;8.25;;;3.88;;
36653;SDS011;22650;49.350;20.898;2023-03-14T00:26:49;7.18;;;4.00;;
36653;SDS011;22650;49.350;20.898;2023-03-14T00:29:23;6.10;;;3.97;;
36653;SDS011;22650;49.350;20.898;2023-03-14T00:31:58;7.40;;;4.05;;
36653;SDS011;22650;49.350;20.898;2023-03-14T00:34:32;6.10;;;3.17;;
36653;SDS011;22650;49.350;20.898;2023-03-14T00:37:06;7.80;;;3.67;;
36653;SDS011;22650;49.350;20.898;2023-03-14T00:39:39;6.40;;;3.47;;
36653;SDS011;22650;49.350;20.898;2023-03-14T00:42:13;8.32;;;3.97;;
36653;SDS011;22650;49.350;20.898;2023-03-14T00:44:46;11.95;;;4.50;;
36653;SDS011;22650;49.350;20.898;2023-03-14T00:47:21;6.90;;;3.35;;
36653;SDS011;22650;49.350;20.898;2023-03-14T00:49:55;5.68;;;3.90;;
36653;SDS011;22650;49.350;20.898;2023-03-14T00:52:28;11.15;;;4.15;;
36653;SDS011;22650;49.350;20.898;2023-03-14T00:55:02;8.45;;;3.22;;
36653;SDS011;22650;49.350;20.898;2023-03-14T00:57:36;6.95;;;3.70;;
36653;SDS011;22650;49.350;20.898;2023-03-14T01:00:10;6.25;;;3.47;;
36653;SDS011;22650;49.350;20.898;2023-03-14T01:02:46;5.40;;;3.22;;
36653;SDS011;22650;49.350;20.898;2023-03-14T01:05:19;5.13;;;3.13;;
36653;SDS011;22650;49.350;20.898;2023-03-14T01:07:54;10.98;;;3.17;;
36653;SDS011;22650;49.350;20.898;2023-03-14T01:10:28;7.00;;;3.40;;
36653;SDS011;22650;49.350;20.898;2023-03-14T01:13:02;7.50;;;3.50;;
36653;SDS011;22650;49.350;20.898;2023-03-14T01:15:36;4.68;;;2.90;;
36653;SDS011;22650;49.350;20.898;2023-03-14T01:18:11;6.75;;;3.05;;
36653;SDS011;22650;49.350;20.898;2023-03-14T01:20:45;5.38;;;2.92;;
36653;SDS011;22650;49.350;20.898;2023-03-14T01:23:18;5.70;;;2.78;;
36653;SDS011;22650;49.350;20.898;2023-03-14T01:25:52;6.03;;;3.40;;
36653;SDS011;22650;49.350;20.898;2023-03-14T01:28:26;6.63;;;3.13;;
36653;SDS011;22650;49.350;20.898;2023-03-14T01:31:01;6.05;;;2.38;;
36653;SDS011;22650;49.350;20.898;2023-03-14T01:33:37;9.43;;;3.15;;
36653;SDS011;22650;49.350;20.898;2023-03-14T01:36:13;5.40;;;2.67;;
36653;SDS011;22650;49.350;20.898;2023-03-14T01:38:47;6.00;;;2.78;;
36653;SDS011;22650;49.350;20.898;2023-03-14T01:41:22;8.27;;;3.20;;
36653;SDS011;22650;49.350;20.898;2023-03-14T01:43:59;5.13;;;2.72;;
36653;SDS011;22650;49.350;20.898;2023-03-14T01:46:38;5.53;;;2.42;;
36653;SDS011;22650;49.350;20.898;2023-03-14T01:49:19;9.63;;;3.08;;
36653;SDS011;22650;49.350;20.898;2023-03-14T01:52:05;8.95;;;3.17;;
36653;SDS011;22650;49.350;20.898;2023-03-14T01:54:43;6.32;;;3.25;;
36653;SDS011;22650;49.350;20.898;2023-03-14T01:57:20;7.43;;;2.92;;
36653;SDS011;22650;49.350;20.898;2023-03-14T01:59:58;4.25;;;2.47;;
36653;SDS011;22650;49.350;20.898;2023-03-14T02:02:44;4.47;;;2.65;;
36653;SDS011;22650;49.350;20.898;2023-03-14T02:05:25;6.53;;;3.03;;
36653;SDS011;22650;49.350;20.898;2023-03-14T02:08:08;4.60;;;2.67;;
36653;SDS011;22650;49.350;20.898;2023-03-14T02:10:59;5.78;;;2.75;;
36653;SDS011;22650;49.350;20.898;2023-03-14T02:14:02;7.13;;;2.65;;
36653;SDS011;22650;49.350;20.898;2023-03-14T02:16:55;6.97;;;2.75;;
36653;SDS011;22650;49.350;20.898;2023-03-14T02:22:42;5.22;;;3.03;;
36653;SDS011;22650;49.350;20.898;2023-03-14T02:25:20;5.47;;;2.97;;
36653;SDS011;22650;49.350;20.898;2023-03-14T02:28:01;5.70;;;2.53;;
36653;SDS011;22650;49.350;20.898;2023-03-14T02:30:35;5.63;;;2.05;;
36653;SDS011;22650;49.350;20.898;2023-03-14T02:33:10;5.88;;;2.90;;
36653;SDS011;22650;49.350;20.898;2023-03-14T02:35:48;5.57;;;2.92;;
36653;SDS011;22650;49.350;20.898;2023-03-14T02:38:27;5.15;;;2.90;;
36653;SDS011;22650;49.350;20.898;2023-03-14T02:41:06;5.07;;;2.50;;
36653;SDS011;22650;49.350;20.898;2023-03-14T02:43:47;3.63;;;2.63;;
36653;SDS011;22650;49.350;20.898;2023-03-14T02:46:20;5.38;;;2.20;;
36653;SDS011;22650;49.350;20.898;2023-03-14T02:48:55;3.20;;;1.98;;
36653;SDS011;22650;49.350;20.898;2023-03-14T02:51:35;5.40;;;2.95;;
36653;SDS011;22650;49.350;20.898;2023-03-14T02:54:10;4.40;;;2.47;;
36653;SDS011;22650;49.350;20.898;2023-03-14T02:56:44;6.03;;;2.75;;
36653;SDS011;22650;49.350;20.898;2023-03-14T02:59:19;4.15;;;2.22;;
36653;SDS011;22650;49.350;20.898;2023-03-14T03:01:56;6.20;;;2.28;;
36653;SDS011;22650;49.350;20.898;2023-03-14T03:04:32;3.25;;;1.95;;
36653;SDS011;22650;49.350;20.898;2023-03-14T03:07:05;4.35;;;2.45;;
36653;SDS011;22650;49.350;20.898;2023-03-14T03:09:39;5.85;;;2.70;;
36653;SDS011;22650;49.350;20.898;2023-03-14T03:12:12;7.10;;;3.17;;
36653;SDS011;22650;49.350;20.898;2023-03-14T03:14:47;7.43;;;2.83;;
36653;SDS011;22650;49.350;20.898;2023-03-14T03:17:21;5.60;;;2.55;;
36653;SDS011;22650;49.350;20.898;2023-03-14T03:19:54;5.38;;;2.80;;
36653;SDS011;22650;49.350;20.898;2023-03-14T03:22:28;4.53;;;3.03;;
36653;SDS011;22650;49.350;20.898;2023-03-14T03:25:02;8.82;;;2.92;;
36653;SDS011;22650;49.350;20.898;2023-03-14T03:27:36;7.07;;;2.42;;
36653;SDS011;22650;49.350;20.898;2023-03-14T03:30:12;5.15;;;2.35;;
36653;SDS011;22650;49.350;20.898;2023-03-14T03:32:46;5.00;;;2.72;;
36653;SDS011;22650;49.350;20.898;2023-03-14T03:35:20;5.57;;;2.28;;
36653;SDS011;22650;49.350;20.898;2023-03-14T03:37:53;4.18;;;2.78;;
36653;SDS011;22650;49.350;20.898;2023-03-14T03:40:27;7.00;;;3.25;;
36653;SDS011;22650;49.350;20.898;2023-03-14T03:43:01;5.10;;;2.38;;
36653;SDS011;22650;49.350;20.898;2023-03-14T03:45:40;5.80;;;2.47;;
36653;SDS011;22650;49.350;20.898;2023-03-14T03:48:14;8.32;;;3.40;;
36653;SDS011;22650;49.350;20.898;2023-03-14T03:50:47;6.22;;;2.75;;
36653;SDS011;22650;49.350;20.898;2023-03-14T03:53:24;5.68;;;2.90;;
36653;SDS011;22650;49.350;20.898;2023-03-14T03:56:08;5.85;;;2.67;;
36653;SDS011;22650;49.350;20.898;2023-03-14T03:58:43;5.43;;;2.58;;
36653;SDS011;22650;49.350;20.898;2023-03-14T04:01:18;4.10;;;2.25;;
36653;SDS011;22650;49.350;20.898;2023-03-14T04:03:54;4.88;;;2.20;;
36653;SDS011;22650;49.350;20.898;2023-03-14T04:06:29;5.50;;;2.20;;
36653;SDS011;22650;49.350;20.898;2023-03-14T04:09:04;8.98;;;2.47;;
36653;SDS011;22650;49.350;20.898;2023-03-14T04:11:50;6.18;;;2.53;;
36653;SDS011;22650;49.350;20.898;2023-03-14T04:14:23;4.63;;;2.35;;
36653;SDS011;22650;49.350;20.898;2023-03-14T04:17:21;5.97;;;2.35;;
36653;SDS011;22650;49.350;20.898;2023-03-14T04:19:54;4.53;;;2.20;;
36653;SDS011;22650;49.350;20.898;2023-03-14T04:22:36;4.47;;;2.78;;
36653;SDS011;22650;49.350;20.898;2023-03-14T04:25:09;8.27;;;2.78;;
36653;SDS011;22650;49.350;20.898;2023-03-14T04:27:49;6.07;;;3.15;;
36653;SDS011;22650;49.350;20.898;2023-03-14T04:30:28;2.75;;;1.73;;
36653;SDS011;22650;49.350;20.898;2023-03-14T04:33:12;6.13;;;2.38;;
36653;SDS011;22650;49.350;20.898;2023-03-14T04:35:55;4.82;;;2.90;;
36653;SDS011;22650;49.350;20.898;2023-03-14T04:38:29;18.77;;;2.60;;
36653;SDS011;22650;49.350;20.898;2023-03-14T04:41:04;7.95;;;2.35;;
36653;SDS011;22650;49.350;20.898;2023-03-14T04:43:39;5.25;;;2.00;;
36653;SDS011;22650;49.350;20.898;2023-03-14T04:46:15;4.97;;;2.85;;
36653;SDS011;22650;49.350;20.898;2023-03-14T04:48:50;7.10;;;2.25;;
36653;SDS011;22650;49.350;20.898;2023-03-14T04:51:24;3.80;;;2.55;;
36653;SDS011;22650;49.350;20.898;2023-03-14T04:53:58;7.82;;;2.33;;
36653;SDS011;22650;49.350;20.898;2023-03-14T04:56:32;7.18;;;3.08;;
36653;SDS011;22650;49.350;20.898;2023-03-14T04:59:07;5.13;;;2.20;;
36653;SDS011;22650;49.350;20.898;2023-03-14T05:01:43;6.05;;;2.20;;
36653;SDS011;22650;49.350;20.898;2023-03-14T05:04:43;5.72;;;2.58;;
36653;SDS011;22650;49.350;20.898;2023-03-14T05:07:36;4.38;;;2.10;;
36653;SDS011;22650;49.350;20.898;2023-03-14T05:10:32;10.93;;;2.38;;
36653;SDS011;22650;49.350;20.898;2023-03-14T05:13:29;3.58;;;1.98;;
36653;SDS011;22650;49.350;20.898;2023-03-14T05:16:13;6.57;;;2.50;;
36653;SDS011;22650;49.350;20.898;2023-03-14T05:18:47;6.07;;;2.28;;
36653;SDS011;22650;49.350;20.898;2023-03-14T05:21:53;4.57;;;2.60;;
36653;SDS011;22650;49.350;20.898;2023-03-14T05:24:46;3.47;;;1.85;;
36653;SDS011;22650;49.350;20.898;2023-03-14T05:27:58;4.55;;;2.30;;
36653;SDS011;22650;49.350;20.898;2023-03-14T05:30:58;3.72;;;1.92;;
36653;SDS011;22650;49.350;20.898;2023-03-14T05:33:50;4.43;;;2.45;;
36653;SDS011;22650;49.350;20.898;2023-03-14T05:37:00;4.93;;;1.92;;
36653;SDS011;22650;49.350;20.898;2023-03-14T05:39:47;4.53;;;1.95;;
36653;SDS011;22650;49.350;20.898;2023-03-14T05:42:41;5.35;;;2.05;;
36653;SDS011;22650;49.350;20.898;2023-03-14T05:45:44;5.43;;;2.40;;
36653;SDS011;22650;49.350;20.898;2023-03-14T05:48:36;6.82;;;3.08;;
36653;SDS011;22650;49.350;20.898;2023-03-14T05:51:28;3.95;;;2.15;;
36653;SDS011;22650;49.350;20.898;2023-03-14T05:54:23;6.55;;;1.65;;
36653;SDS011;22650;49.350;20.898;2023-03-14T05:57:09;3.70;;;1.98;;
36653;SDS011;22650;49.350;20.898;2023-03-14T06:00:03;3.75;;;2.15;;
36653;SDS011;22650;49.350;20.898;2023-03-14T06:02:50;5.10;;;2.28;;
36653;SDS011;22650;49.350;20.898;2023-03-14T06:05:29;4.50;;;2.58;;
36653;SDS011;22650;49.350;20.898;2023-03-14T06:08:05;5.45;;;3.63;;
36653;SDS011;22650;49.350;20.898;2023-03-14T06:10:40;4.18;;;2.60;;
36653;SDS011;22650;49.350;20.898;2023-03-14T06:13:14;5.70;;;2.20;;
36653;SDS011;22650;49.350;20.898;2023-03-14T06:15:48;3.75;;;2.63;;
36653;SDS011;22650;49.350;20.898;2023-03-14T06:18:22;8.20;;;2.20;;
36653;SDS011;22650;49.350;20.898;2023-03-14T06:20:56;3.50;;;2.05;;
36653;SDS011;22650;49.350;20.898;2023-03-14T06:23:31;4.53;;;2.42;;
36653;SDS011;22650;49.350;20.898;2023-03-14T06:26:07;5.05;;;2.15;;
36653;SDS011;22650;49.350;20.898;2023-03-14T06:28:42;13.75;;;4.93;;
36653;SDS011;22650;49.350;20.898;2023-03-14T06:31:16;18.15;;;7.93;;
36653;SDS011;22650;49.350;20.898;2023-03-14T06:33:57;11.20;;;4.65;;
36653;SDS011;22650;49.350;20.898;2023-03-14T06:36:33;6.50;;;3.25;;
36653;SDS011;22650;49.350;20.898;2023-03-14T06:39:07;7.10;;;1.92;;
36653;SDS011;22650;49.350;20.898;2023-03-14T06:41:46;3.80;;;2.15;;
36653;SDS011;22650;49.350;20.898;2023-03-14T06:44:20;4.70;;;2.35;;
36653;SDS011;22650;49.350;20.898;2023-03-14T06:46:54;5.63;;;2.15;;
36653;SDS011;22650;49.350;20.898;2023-03-14T06:49:27;3.63;;;2.42;;
36653;SDS011;22650;49.350;20.898;2023-03-14T06:52:03;12.63;;;4.88;;
36653;SDS011;22650;49.350;20.898;2023-03-14T06:54:36;6.65;;;3.05;;
36653;SDS011;22650;49.350;20.898;2023-03-14T06:57:11;7.25;;;2.30;;
36653;SDS011;22650;49.350;20.898;2023-03-14T06:59:46;5.10;;;3.00;;
36653;SDS011;22650;49.350;20.898;2023-03-14T07:02:19;4.38;;;2.38;;
36653;SDS011;22650;49.350;20.898;2023-03-14T07:05:12;6.15;;;3.55;;
36653;SDS011;22650;49.350;20.898;2023-03-14T07:07:45;4.97;;;2.15;;
36653;SDS011;22650;49.350;20.898;2023-03-14T07:10:20;4.40;;;2.17;;
36653;SDS011;22650;49.350;20.898;2023-03-14T07:12:56;2.97;;;1.70;;
36653;SDS011;22650;49.350;20.898;2023-03-14T07:15:32;4.18;;;2.20;;
36653;SDS011;22650;49.350;20.898;2023-03-14T07:18:10;6.60;;;2.38;;
36653;SDS011;22650;49.350;20.898;2023-03-14T07:20:44;4.32;;;2.00;;
36653;SDS011;22650;49.350;20.898;2023-03-14T07:23:21;8.57;;;2.58;;
36653;SDS011;22650;49.350;20.898;2023-03-14T07:25:57;7.68;;;2.67;;
36653;SDS011;22650;49.350;20.898;2023-03-14T07:28:32;5.88;;;2.10;;
36653;SDS011;22650;49.350;20.898;2023-03-14T07:31:11;4.63;;;3.08;;
36653;SDS011;22650;49.350;20.898;2023-03-14T07:33:47;4.18;;;1.80;;
36653;SDS011;22650;49.350;20.898;2023-03-14T07:36:21;3.38;;;2.20;;
36653;SDS011;22650;49.350;20.898;2023-03-14T07:38:55;4.03;;;1.90;;
36653;SDS011;22650;49.350;20.898;2023-03-14T07:44:31;7.07;;;2.72;;
36653;SDS011;22650;49.350;20.898;2023-03-14T07:47:05;3.97;;;2.00;;
36653;SDS011;22650;49.350;20.898;2023-03-14T07:49:38;4.50;;;1.92;;
36653;SDS011;22650;49.350;20.898;2023-03-14T07:52:12;7.00;;;2.22;;
36653;SDS011;22650;49.350;20.898;2023-03-14T07:54:45;5.47;;;2.22;;
36653;SDS011;22650;49.350;20.898;2023-03-14T07:57:19;6.53;;;2.30;;
36653;SDS011;22650;49.350;20.898;2023-03-14T07:59:54;10.63;;;2.70;;
36653;SDS011;22650;49.350;20.898;2023-03-14T08:02:27;3.90;;;2.28;;
36653;SDS011;22650;49.350;20.898;2023-03-14T08:05:01;4.95;;;2.17;;
36653;SDS011;22650;49.350;20.898;2023-03-14T08:07:35;5.55;;;2.50;;
36653;SDS011;22650;49.350;20.898;2023-03-14T08:10:09;7.75;;;2.85;;
36653;SDS011;22650;49.350;20.898;2023-03-14T08:12:44;7.00;;;2.63;;
36653;SDS011;22650;49.350;20.898;2023-03-14T08:15:20;5.78;;;2.55;;
36653;SDS011;22650;49.350;20.898;2023-03-14T08:17:53;5.90;;;2.92;;
36653;SDS011;22650;49.350;20.898;2023-03-14T08:20:28;5.57;;;2.78;;
36653;SDS011;22650;49.350;20.898;2023-03-14T08:23:02;3.92;;;2.30;;
36653;SDS011;22650;49.350;20.898;2023-03-14T08:25:37;4.53;;;2.45;;
36653;SDS011;22650;49.350;20.898;2023-03-14T08:28:11;4.50;;;2.00;;
36653;SDS011;22650;49.350;20.898;2023-03-14T08:30:46;5.18;;;2.08;;
36653;SDS011;22650;49.350;20.898;2023-03-14T08:33:19;4.90;;;2.20;;
36653;SDS011;22650;49.350;20.898;2023-03-14T08:35:53;6.07;;;2.60;;
36653;SDS011;22650;49.350;20.898;2023-03-14T08:38:29;4.82;;;2.35;;
36653;SDS011;22650;49.350;20.898;2023-03-14T08:41:06;3.53;;;2.08;;
36653;SDS011;22650;49.350;20.898;2023-03-14T08:43:41;8.85;;;3.05;;
36653;SDS011;22650;49.350;20.898;2023-03-14T08:46:21;5.70;;;2.28;;
36653;SDS011;22650;49.350;20.898;2023-03-14T08:48:55;7.85;;;2.45;;
36653;SDS011;22650;49.350;20.898;2023-03-14T08:51:29;9.18;;;2.55;;
36653;SDS011;22650;49.350;20.898;2023-03-14T08:54:03;5.90;;;2.45;;
36653;SDS011;22650;49.350;20.898;2023-03-14T08:56:36;4.47;;;2.38;;
36653;SDS011;22650;49.350;20.898;2023-03-14T08:59:10;9.30;;;2.67;;
36653;SDS011;22650;49.350;20.898;2023-03-14T09:01:45;7.07;;;2.58;;
36653;SDS011;22650;49.350;20.898;2023-03-14T09:04:19;3.65;;;2.35;;
36653;SDS011;22650;49.350;20.898;2023-03-14T09:06:53;3.83;;;2.38;;
36653;SDS011;22650;49.350;20.898;2023-03-14T09:09:27;5.43;;;2.40;;
36653;SDS011;22650;49.350;20.898;2023-03-14T09:12:01;4.50;;;2.08;;
36653;SDS011;22650;49.350;20.898;2023-03-14T09:14:35;4.47;;;2.60;;
36653;SDS011;22650;49.350;20.898;2023-03-14T09:17:10;6.13;;;2.67;;
36653;SDS011;22650;49.350;20.898;2023-03-14T09:19:43;4.45;;;1.90;;
36653;SDS011;22650;49.350;20.898;2023-03-14T09:22:17;4.10;;;2.35;;
36653;SDS011;22650;49.350;20.898;2023-03-14T09:24:50;16.92;;;2.90;;
36653;SDS011;22650;49.350;20.898;2023-03-14T09:27:24;9.05;;;3.05;;
36653;SDS011;22650;49.350;20.898;2023-03-14T09:29:57;6.05;;;2.25;;
36653;SDS011;22650;49.350;20.898;2023-03-14T09:32:32;7.13;;;2.90;;
36653;SDS011;22650;49.350;20.898;2023-03-14T09:35:06;7.05;;;2.83;;
36653;SDS011;22650;49.350;20.898;2023-03-14T09:37:40;5.35;;;2.05;;
36653;SDS011;22650;49.350;20.898;2023-03-14T09:40:14;5.88;;;2.30;;
36653;SDS011;22650;49.350;20.898;2023-03-14T09:42:50;7.22;;;3.20;;
36653;SDS011;22650;49.350;20.898;2023-03-14T09:45:27;5.35;;;3.00;;
36653;SDS011;22650;49.350;20.898;2023-03-14T09:48:05;9.15;;;3.10;;
36653;SDS011;22650;49.350;20.898;2023-03-14T09:50:45;5.90;;;2.97;;
36653;SDS011;22650;49.350;20.898;2023-03-14T09:53:22;5.63;;;2.63;;
36653;SDS011;22650;49.350;20.898;2023-03-14T09:55:58;4.20;;;2.45;;
36653;SDS011;22650;49.350;20.898;2023-03-14T09:58:32;3.55;;;2.40;;
36653;SDS011;22650;49.350;20.898;2023-03-14T10:01:07;10.13;;;2.40;;
36653;SDS011;22650;49.350;20.898;2023-03-14T10:03:47;7.80;;;2.47;;
36653;SDS011;22650;49.350;20.898;2023-03-14T10:06:23;4.20;;;2.05;;
36653;SDS011;22650;49.350;20.898;2023-03-14T10:08:59;4.03;;;2.22;;
36653;SDS011;22650;49.350;20.898;2023-03-14T10:11:35;12.98;;;2.35;;
36653;SDS011;22650;49.350;20.898;2023-03-14T10:14:09;4.80;;;2.67;;
36653;SDS011;22650;49.350;20.898;2023-03-14T10:16:45;6.40;;;2.75;;
36653;SDS011;22650;49.350;20.898;2023-03-14T10:19:21;5.82;;;2.47;;
36653;SDS011;22650;49.350;20.898;2023-03-14T10:21:54;3.60;;;2.10;;
36653;SDS011;22650;49.350;20.898;2023-03-14T10:24:29;3.67;;;2.40;;
36653;SDS011;22650;49.350;20.898;2023-03-14T10:27:04;3.83;;;2.10;;
36653;SDS011;22650;49.350;20.898;2023-03-14T10:29:53;4.00;;;2.30;;
36653;SDS011;22650;49.350;20.898;2023-03-14T10:32:32;5.88;;;2.83;;
36653;SDS011;22650;49.350;20.898;2023-03-14T10:35:17;5.32;;;2.55;;
36653;SDS011;22650;49.350;20.898;2023-03-14T10:37:53;6.72;;;2.55;;
36653;SDS011;22650;49.350;20.898;2023-03-14T10:40:30;8.52;;;2.67;;
36653;SDS011;22650;49.350;20.898;2023-03-14T10:43:06;5.20;;;2.50;;
36653;SDS011;22650;49.350;20.898;2023-03-14T10:45:50;4.63;;;2.38;;
36653;SDS011;22650;49.350;20.898;2023-03-14T10:48:30;8.48;;;2.83;;
36653;SDS011;22650;49.350;20.898;2023-03-14T10:51:07;3.70;;;2.70;;
36653;SDS011;22650;49.350;20.898;2023-03-14T10:53:43;3.70;;;2.38;;
36653;SDS011;22650;49.350;20.898;2023-03-14T10:56:19;4.40;;;2.45;;
36653;SDS011;22650;49.350;20.898;2023-03-14T10:58:56;5.10;;;2.38;;
36653;SDS011;22650;49.350;20.898;2023-03-14T11:01:33;4.15;;;2.55;;
36653;SDS011;22650;49.350;20.898;2023-03-14T11:04:16;6.20;;;2.13;;
36653;SDS011;22650;49.350;20.898;2023-03-14T11:07:01;4.18;;;2.17;;
36653;SDS011;22650;49.350;20.898;2023-03-14T11:09:42;6.03;;;2.70;;
36653;SDS011;22650;49.350;20.898;2023-03-14T11:12:28;3.88;;;2.33;;
36653;SDS011;22650;49.350;20.898;2023-03-14T11:15:11;5.15;;;3.15;;
36653;SDS011;22650;49.350;20.898;2023-03-14T11:17:54;6.57;;;2.75;;
36653;SDS011;22650;49.350;20.898;2023-03-14T11:20:38;6.80;;;2.80;;
36653;SDS011;22650;49.350;20.898;2023-03-14T11:23:20;5.22;;;3.03;;
36653;SDS011;22650;49.350;20.898;2023-03-14T11:25:56;4.35;;;2.88;;
36653;SDS011;22650;49.350;20.898;2023-03-14T11:28:37;7.07;;;2.83;;
36653;SDS011;22650;49.350;20.898;2023-03-14T11:31:16;4.65;;;2.55;;
36653;SDS011;22650;49.350;20.898;2023-03-14T11:33:56;6.43;;;3.45;;
36653;SDS011;22650;49.350;20.898;2023-03-14T11:36:35;8.23;;;3.03;;
36653;SDS011;22650;49.350;20.898;2023-03-14T11:39:13;6.60;;;3.17;;
36653;SDS011;22650;49.350;20.898;2023-03-14T11:41:49;4.57;;;2.58;;
36653;SDS011;22650;49.350;20.898;2023-03-14T11:44:25;7.10;;;2.60;;
36653;SDS011;22650;49.350;20.898;2023-03-14T11:47:04;3.03;;;2.30;;
36653;SDS011;22650;49.350;20.898;2023-03-14T11:49:42;4.78;;;2.60;;
36653;SDS011;22650;49.350;20.898;2023-03-14T11:52:22;3.53;;;2.83;;
36653;SDS011;22650;49.350;20.898;2023-03-14T11:55:04;5.90;;;2.72;;
36653;SDS011;22650;49.350;20.898;2023-03-14T11:57:43;4.45;;;2.58;;
36653;SDS011;22650;49.350;20.898;2023-03-14T12:00:19;6.47;;;2.25;;
36653;SDS011;22650;49.350;20.898;2023-03-14T12:02:56;4.43;;;2.78;;
36653;SDS011;22650;49.350;20.898;2023-03-14T12:05:43;3.10;;;2.42;;
36653;SDS011;22650;49.350;20.898;2023-03-14T12:08:32;5.95;;;2.88;;
36653;SDS011;22650;49.350;20.898;2023-03-14T12:11:15;6.32;;;2.55;;
36653;SDS011;22650;49.350;20.898;2023-03-14T12:13:57;26.58;;;3.42;;
36653;SDS011;22650;49.350;20.898;2023-03-14T12:16:35;5.55;;;2.35;;
36653;SDS011;22650;49.350;20.898;2023-03-14T12:22:19;5.43;;;2.80;;
36653;SDS011;22650;49.350;20.898;2023-03-14T12:25:03;4.05;;;2.58;;
36653;SDS011;22650;49.350;20.898;2023-03-14T12:30:51;4.97;;;2.53;;
36653;SDS011;22650;49.350;20.898;2023-03-14T12:39:29;10.77;;;3.10;;
36653;SDS011;22650;49.350;20.898;2023-03-14T12:42:10;3.88;;;2.28;;
36653;SDS011;22650;49.350;20.898;2023-03-14T12:44:47;5.05;;;2.70;;
36653;SDS011;22650;49.350;20.898;2023-03-14T12:50:19;3.40;;;2.40;;
36653;SDS011;22650;49.350;20.898;2023-03-14T12:53:09;5.18;;;2.90;;
36653;SDS011;22650;49.350;20.898;2023-03-14T12:56:09;4.50;;;2.65;;
36653;SDS011;22650;49.350;20.898;2023-03-14T12:59:00;4.93;;;3.03;;
36653;SDS011;22650;49.350;20.898;2023-03-14T13:01:56;3.67;;;2.10;;
36653;SDS011;22650;49.350;20.898;2023-03-14T13:04:33;6.53;;;2.95;;
36653;SDS011;22650;49.350;20.898;2023-03-14T13:07:11;8.32;;;2.80;;
36653;SDS011;22650;49.350;20.898;2023-03-14T13:12:36;5.55;;;2.20;;
36653;SDS011;22650;49.350;20.898;2023-03-14T13:15:14;4.32;;;2.38;;
36653;SDS011;22650;49.350;20.898;2023-03-14T13:17:54;4.40;;;2.55;;
36653;SDS011;22650;49.350;20.898;2023-03-14T13:20:32;6.07;;;3.20;;
36653;SDS011;22650;49.350;20.898;2023-03-14T13:23:19;7.35;;;2.58;;
36653;SDS011;22650;49.350;20.898;2023-03-14T13:25:53;5.22;;;2.30;;
36653;SDS011;22650;49.350;20.898;2023-03-14T13:28:27;4.32;;;2.38;;
36653;SDS011;22650;49.350;20.898;2023-03-14T13:31:03;4.22;;;2.67;;
36653;SDS011;22650;49.350;20.898;2023-03-14T13:33:39;5.47;;;2.80;;
36653;SDS011;22650;49.350;20.898;2023-03-14T13:36:14;6.88;;;2.58;;
36653;SDS011;22650;49.350;20.898;2023-03-14T13:38:55;5.88;;;2.78;;
36653;SDS011;22650;49.350;20.898;2023-03-14T13:41:30;3.22;;;2.50;;
36653;SDS011;22650;49.350;20.898;2023-03-14T13:44:05;5.65;;;2.92;;
36653;SDS011;22650;49.350;20.898;2023-03-14T13:46:46;5.93;;;2.92;;
36653;SDS011;22650;49.350;20.898;2023-03-14T13:49:22;12.27;;;3.33;;
36653;SDS011;22650;49.350;20.898;2023-03-14T13:51:56;5.72;;;2.85;;
36653;SDS011;22650;49.350;20.898;2023-03-14T13:54:30;11.70;;;3.47;;
36653;SDS011;22650;49.350;20.898;2023-03-14T13:57:06;7.13;;;2.50;;
36653;SDS011;22650;49.350;20.898;2023-03-14T13:59:40;4.90;;;2.83;;
36653;SDS011;22650;49.350;20.898;2023-03-14T14:02:13;5.32;;;2.80;;
36653;SDS011;22650;49.350;20.898;2023-03-14T14:04:50;7.35;;;3.75;;
36653;SDS011;22650;49.350;20.898;2023-03-14T14:07:24;7.53;;;3.35;;
36653;SDS011;22650;49.350;20.898;2023-03-14T14:09:58;6.78;;;3.80;;
36653;SDS011;22650;49.350;20.898;2023-03-14T14:12:33;5.13;;;2.85;;
36653;SDS011;22650;49.350;20.898;2023-03-14T14:15:10;6.18;;;3.20;;
36653;SDS011;22650;49.350;20.898;2023-03-14T14:17:47;5.20;;;2.92;;
36653;SDS011;22650;49.350;20.898;2023-03-14T14:20:28;4.80;;;2.50;;
36653;SDS011;22650;49.350;20.898;2023-03-14T14:23:07;7.72;;;3.10;;
36653;SDS011;22650;49.350;20.898;2023-03-14T14:25:44;4.57;;;2.33;;
36653;SDS011;22650;49.350;20.898;2023-03-14T14:28:21;4.05;;;2.42;;
36653;SDS011;22650;49.350;20.898;2023-03-14T14:31:00;8.73;;;2.45;;
36653;SDS011;22650;49.350;20.898;2023-03-14T14:33:38;6.30;;;3.03;;
36653;SDS011;22650;49.350;20.898;2023-03-14T14:36:21;7.32;;;2.70;;
36653;SDS011;22650;49.350;20.898;2023-03-14T14:38:57;5.40;;;2.55;;
36653;SDS011;22650;49.350;20.898;2023-03-14T14:41:33;4.53;;;2.33;;
36653;SDS011;22650;49.350;20.898;2023-03-14T14:44:10;5.93;;;2.80;;
36653;SDS011;22650;49.350;20.898;2023-03-14T14:46:46;5.43;;;2.72;;
36653;SDS011;22650;49.350;20.898;2023-03-14T14:49:21;4.78;;;2.53;;
36653;SDS011;22650;49.350;20.898;2023-03-14T14:52:03;8.68;;;3.33;;
36653;SDS011;22650;49.350;20.898;2023-03-14T14:54:45;6.45;;;3.20;;
36653;SDS011;22650;49.350;20.898;2023-03-14T14:57:22;9.77;;;3.25;;
36653;SDS011;22650;49.350;20.898;2023-03-14T15:00:02;11.18;;;2.80;;
36653;SDS011;22650;49.350;20.898;2023-03-14T15:02:44;6.18;;;2.92;;
36653;SDS011;22650;49.350;20.898;2023-03-14T15:05:20;5.65;;;3.05;;
36653;SDS011;22650;49.350;20.898;2023-03-14T15:07:56;7.68;;;3.38;;
36653;SDS011;22650;49.350;20.898;2023-03-14T15:10:30;8.13;;;3.55;;
36653;SDS011;22650;49.350;20.898;2023-03-14T15:13:03;10.00;;;4.10;;
36653;SDS011;22650;49.350;20.898;2023-03-14T15:15:37;21.40;;;9.60;;
36653;SDS011;22650;49.350;20.898;2023-03-14T15:18:11;25.17;;;9.82;;
36653;SDS011;22650;49.350;20.898;2023-03-14T15:20:47;33.67;;;15.45;;
36653;SDS011;22650;49.350;20.898;2023-03-14T15:23:22;34.55;;;13.43;;
36653;SDS011;22650;49.350;20.898;2023-03-14T15:25:56;39.33;;;15.70;;
36653;SDS011;22650;49.350;20.898;2023-03-14T15:28:29;18.10;;;8.93;;
36653;SDS011;22650;49.350;20.898;2023-03-14T15:31:03;41.53;;;16.27;;
36653;SDS011;22650;49.350;20.898;2023-03-14T15:33:37;44.95;;;14.82;;
36653;SDS011;22650;49.350;20.898;2023-03-14T15:36:16;8.65;;;3.78;;
36653;SDS011;22650;49.350;20.898;2023-03-14T15:38:57;10.45;;;4.03;;
36653;SDS011;22650;49.350;20.898;2023-03-14T15:41:32;15.50;;;7.55;;
36653;SDS011;22650;49.350;20.898;2023-03-14T15:44:05;12.93;;;7.85;;
36653;SDS011;22650;49.350;20.898;2023-03-14T15:46:39;5.82;;;3.90;;
36653;SDS011;22650;49.350;20.898;2023-03-14T15:49:12;9.50;;;4.13;;
36653;SDS011;22650;49.350;20.898;2023-03-14T15:51:46;29.20;;;11.20;;
36653;SDS011;22650;49.350;20.898;2023-03-14T15:54:21;16.15;;;6.80;;
36653;SDS011;22650;49.350;20.898;2023-03-14T15:56:55;8.25;;;3.65;;
36653;SDS011;22650;49.350;20.898;2023-03-14T15:59:29;10.93;;;2.97;;